CheckWX is a tool to help pilots better visualize weather data.  It is not intended as a substitute for an official pre-flight weather briefing.

07:14:28 UTC

KJFK TAF
John F Kennedy International Airport
New York, New York, USA
KJFK 110537Z 1106/1212 20020G27KT P6SM BKN008 OVC014 FM110800 20013G21KT P6SM BKN015 FM111100 21010KT P6SM SCT015 SCT120 FM111400 18011KT P6SM SCT025 FM111800 18015G22KT P6SM VCSH SCT035 PROB30 1119/1123 2SM +TSRA SCT020 BKN035CB FM120000 20013G20KT P6SM VCSH SCT050 FM120400 24012KT P6SM SCT050 FM120900 27010KT P6SM SCT050

Jul-11@
06:00 UTC

Jul-11 @ 06:00 UTC

Jul-11@
08:00 UTC

Jul-11 @ 08:00 UTC

TAF KJFK 110537Z 1106/1212 20020G27KT P6SM BKN008 OVC014

Expired

Wind
  • 200° at 20 KTS
  • {Gusting to 27 KTS
Cloud Levels
  • Broken at 800' AGL
  • Overcast at 1,400' AGL

Jul-11@
08:00 UTC

Jul-11 @ 08:00 UTC

Jul-11@
11:00 UTC

Jul-11 @ 11:00 UTC

FM110800 20013G21KT P6SM BKN015

Expired

Wind
  • 200° at 13 KTS
  • {Gusting to 21 KTS
Cloud Levels
  • Broken at 1,500' AGL

Jul-11@
11:00 UTC

Jul-11 @ 11:00 UTC

Jul-11@
14:00 UTC

Jul-11 @ 14:00 UTC

FM111100 21010KT P6SM SCT015 SCT120

Expired

Wind
  • 210° at 10 KTS
Cloud Levels
  • Scattered at 1,500' AGL
  • Scattered at 12,000' AGL

Jul-11@
14:00 UTC

Jul-11 @ 14:00 UTC

Jul-11@
18:00 UTC

Jul-11 @ 18:00 UTC

FM111400 18011KT P6SM SCT025

Expired

Wind
  • 180° at 11 KTS
Cloud Levels
  • Scattered at 2,500' AGL

Jul-11@
18:00 UTC

Jul-11 @ 18:00 UTC

Jul-12@
00:00 UTC

Jul-12 @ 00:00 UTC

FM111800 18015G22KT P6SM VCSH SCT035

Expired

Wind
  • 180° at 15 KTS
  • {Gusting to 22 KTS
Conditions
Area Showers
Cloud Levels
  • Scattered at 3,500' AGL

Jul-11@
19:00 UTC

Jul-11 @ 19:00 UTC

Jul-11@
23:00 UTC

Jul-11 @ 23:00 UTC

PROB30 1119/1123 2SM +TSRA SCT020 BKN035CB

Expired

Conditions
Heavy Thunderstorm, Rain
Cloud Levels
  • Scattered at 2,000' AGL
  • Broken at 3,500' AGL

Jul-12@
00:00 UTC

Jul-12 @ 00:00 UTC

Jul-12@
04:00 UTC

Jul-12 @ 04:00 UTC

FM120000 20013G20KT P6SM VCSH SCT050

Expired

Wind
  • 200° at 13 KTS
  • {Gusting to 20 KTS
Conditions
Area Showers
Cloud Levels
  • Scattered at 5,000' AGL

Jul-12@
04:00 UTC

Jul-12 @ 04:00 UTC

Jul-12@
09:00 UTC

Jul-12 @ 09:00 UTC

FM120400 24012KT P6SM SCT050

From

From Standard forecast or significant change

Wind
  • 240° at 12 KTS
Cloud Levels
  • Scattered at 5,000' AGL

Jul-12@
09:00 UTC

Jul-12 @ 09:00 UTC

Jul-12@
12:00 UTC

Jul-12 @ 12:00 UTC

FM120900 27010KT P6SM SCT050

From

From Standard forecast or significant change

Wind
  • 270° at 10 KTS
Cloud Levels
  • Scattered at 5,000' AGL